Terminal Aerodrome Forecast
Issued by NWS

Home | Current Version | Previous Version | Graphics & Text | Print | Product List | Glossary On
Versions: 1 2 3 4 5 6 7 8 9 10 11 12 13 14 15 16 17 18 19 20
000
FTUS43 KABR 221127
TAFMBG
TAF
KMBG 221127Z 2212/2312 VRB05KT P6SM SKC
     FM221600 15007KT P6SM BKN200
     FM222200 12006KT 2SM -SN OVC025
     FM230300 VRB03KT P6SM OVC008=

USA.gov is the U.S. government's official web portal to all federal, state and local government web resources and services.